Tropical Cyclones
[Index]
Main Index Home Page Stock Weather Photos Extreme Storms Discussion Storm News and Storm Chasing Reports Tropical Cyclones / Hurricanes / Typhoons Weather Data and Links Wild Fires / Bushfires Weather Observation Techniques Weather Picture Catalogue Tornado Pictures and Reports Stock Video Footage and DVDs for sale
Season 2005-2006 Tropical Cyclone VAIANU Track Map
Season 2005-2006 Summaries (Operational Data): [AU] [SIO] [SPAC] [SH]
<<- Previous TC | 2005-2006 Season | Next TC ->>

click for intensity scale information  Lat/long Grid: Show Hide

 Date Labels: Show Hide

Operational Tropical Cyclone Data : JTWC Advisories | BoM Warnings

Name: VAIANU
Number: 0611

09 Feb 2006 21:00 UTC to 19 Feb 2006 06:00 UTC

    date/time    lat    long     hPa   cat  kts
2006-02-09 21   14.5   177.0W   1002         25          
2006-02-10 06   14.5   176.1W   1000         30          
2006-02-10 09   14.0   176.0W    999         30          
2006-02-10 12   14.1   176.0W   1000         30          
2006-02-10 18   13.8   176.3W   1000         30          
2006-02-11 00   16.6   174.9W    999         30          
2006-02-11 06   16.9   174.6W    997         30          
2006-02-11 12   17.4   174.9W    995    1    35          
2006-02-11 18   17.8   175.4W    990    1    40          
2006-02-12 00   18.1   175.9W    985    2    50          
2006-02-12 06   18.3   176.4W    975    2    60          
2006-02-12 12   18.7   176.5W    975    2    60          
2006-02-12 18   19.1   176.9W    975    2    60          
2006-02-13 00   20.1   176.8W    975    2    60          
2006-02-13 06   20.6   176.8W    970    3    65          
2006-02-13 12   21.7   177.0W    965    3    70          
2006-02-13 18   22.1   176.8W    965    3    70          
2006-02-14 00   22.7   176.3W    965    3    70          
2006-02-14 06   23.6   175.5W    965    3    70          
2006-02-14 12   23.7   174.2W    965    3    70          
2006-02-14 18   24.6   173.6W    975    2    60          
2006-02-15 00   25.1   173.1W    980    2    55          
2006-02-15 06   25.2   172.2W    980    2    55          
2006-02-15 12   26.5   170.7W    980    2    55          
2006-02-15 18   26.7   169.4W    980    2    55          
2006-02-16 00   27.2   168.5W    985    2    50          
2006-02-16 06   28.0   167.6W    986    2    50          
2006-02-16 12   29.0   167.0W    985    2    50          
2006-02-16 18   29.0   167.0W    985    2    50          
2006-02-17 00   30.0   166.0W    986    2    50          
2006-02-17 06   31.5   165.0W    976    2    50          
2006-02-17 18   33.0   165.5W    974    2    50          
2006-02-18 00   33.0   166.0W    973    2    50          
2006-02-18 06   34.0   165.0W    971    2    50          
2006-02-18 12   33.0   165.0W    976    2    50          
2006-02-18 18   33.0   164.0W    978    2    50          
2006-02-19 06   34.0   162.0W    976    2    50          
Winds are 10-min average.

Tropical cyclone tracks developed by Michael Bath using operational warnings and advisories and Google Maps.


[Australian Severe Weather index] [Copyright Notice] [Email Contacts] [Search This Site] [Privacy Policy]
Document: tropical_cyclone_vaianu.htm Updated: 28 May 2013